Time;durP1;ratioP1;P1;durP2;ratioP2;P2;SDS_P1;SDS_P2;PMS_P1;PMS_P2;Temp;Humidity;BMP_temperature;BMP_pressure;BME280_temperature;BME280_humidity;BME280_pressure;Samples;Min_cycle;Max_cycle;Signal;HPM_P1;HPM_P2
2021/07/05 00:01:31;;;;;;;10.90;7.32;;;;;;;18.91;66.72;99184.72;5070828;28;20055;-89
2021/07/05 00:04:00;;;;;;;13.32;9.05;;;;;;;18.88;66.29;99181.38;5070096;28;20429;-89
2021/07/05 00:06:27;;;;;;;13.10;8.35;;;;;;;18.83;66.79;99174.81;5071737;28;20052;-89
2021/07/05 00:08:53;;;;;;;9.70;8.68;;;;;;;18.82;66.78;99179.34;5070390;28;20130;-89
2021/07/05 00:11:20;;;;;;;11.38;9.38;;;;;;;18.78;67.14;99175.31;5071642;28;20052;-88
2021/07/05 00:13:47;;;;;;;15.25;9.10;;;;;;;18.77;66.98;99173.63;5070063;28;20052;-90
2021/07/05 00:16:13;;;;;;;10.70;9.43;;;;;;;18.77;67.03;99173.63;5062605;28;20056;-88
2021/07/05 00:18:40;;;;;;;13.02;9.68;;;;;;;18.74;67.26;99172.13;5050377;28;20049;-89
2021/07/05 00:21:06;;;;;;;11.45;9.85;;;;;;;18.73;67.01;99170.44;5050540;28;20056;-90
2021/07/05 00:23:33;;;;;;;15.13;10.02;;;;;;;18.74;66.92;99180.13;5050087;28;20056;-89
2021/07/05 00:26:00;;;;;;;14.15;10.05;;;;;;;18.74;67.39;99168.63;5050018;28;20041;-90
2021/07/05 00:28:27;;;;;;;15.15;10.82;;;;;;;18.75;67.49;99167.63;5051732;28;20052;-90
2021/07/05 00:30:53;;;;;;;12.60;10.95;;;;;;;18.75;67.47;99164.94;5053591;28;20083;-89
2021/07/05 00:33:26;;;;;;;16.27;10.40;;;;;;;18.77;67.14;99168.31;5053993;28;20057;-90
2021/07/05 00:35:53;;;;;;;13.13;11.50;;;;;;;18.77;67.27;99168.31;5054677;28;20449;-90
2021/07/05 00:38:19;;;;;;;15.80;11.38;;;;;;;18.78;67.10;99172.66;5054743;28;20060;-89
2021/07/05 00:40:46;;;;;;;15.38;10.82;;;;;;;18.76;67.13;99166.63;5054926;28;20053;-89
2021/07/05 00:43:12;;;;;;;13.40;12.00;;;;;;;18.74;67.22;99164.13;5053830;28;20052;-89
2021/07/05 00:45:40;;;;;;;15.00;11.52;;;;;;;18.73;67.17;99166.94;5054527;28;20055;-89
2021/07/05 00:48:07;;;;;;;12.20;10.52;;;;;;;18.71;67.32;99163.59;5053760;28;20049;-90
2021/07/05 00:50:34;;;;;;;12.55;11.02;;;;;;;18.69;67.46;99161.06;5053273;28;20111;-89
2021/07/05 00:53:03;;;;;;;17.42;11.77;;;;;;;18.66;67.72;99164.06;5053433;28;20063;-88
2021/07/05 00:55:32;;;;;;;16.45;11.75;;;;;;;18.67;67.42;99164.88;5053131;28;20053;-90
2021/07/05 00:58:00;;;;;;;12.73;10.73;;;;;;;18.65;67.42;99162.38;5054565;28;20100;-89
2021/07/05 01:00:27;;;;;;;14.05;11.45;;;;;;;18.66;67.57;99168.53;5053390;28;20136;-88
2021/07/05 01:02:55;;;;;;;15.82;12.07;;;;;;;18.66;67.68;99155.22;5054553;28;20410;-89
2021/07/05 01:05:23;;;;;;;15.02;12.40;;;;;;;18.65;67.43;99159.69;5053758;28;20647;-90
2021/07/05 01:07:50;;;;;;;13.60;11.98;;;;;;;18.64;67.37;99160.69;5054342;28;20052;-89
2021/07/05 01:10:19;;;;;;;13.85;11.38;;;;;;;18.62;67.64;99162.69;5054542;28;20122;-89
2021/07/05 01:12:47;;;;;;;19.45;12.77;;;;;;;18.60;67.39;99159.34;5052977;28;20525;-89
2021/07/05 01:15:18;;;;;;;14.95;11.52;;;;;;;18.57;67.72;99157.81;5053728;28;20045;-89
2021/07/05 01:17:45;;;;;;;20.05;13.95;;;;;;;18.56;67.52;99157.97;5071062;28;20052;-89
2021/07/05 01:20:15;;;;;;;15.57;12.70;;;;;;;18.53;67.86;99156.44;5074399;28;20403;-90
2021/07/05 01:22:42;;;;;;;16.30;12.25;;;;;;;18.52;67.81;99148.59;5072854;28;20056;-89
2021/07/05 01:25:13;;;;;;;14.07;12.45;;;;;;;18.49;68.00;99152.41;5072351;28;20044;-90
2021/07/05 01:27:42;;;;;;;15.07;12.73;;;;;;;18.49;67.74;99149.75;5058741;28;20049;-89
2021/07/05 01:30:11;;;;;;;19.58;13.43;;;;;;;18.47;67.87;99152.56;5054389;28;20063;-89
2021/07/05 01:32:37;;;;;;;16.00;13.77;;;;;;;18.46;67.48;99148.25;5053099;28;20522;-90
2021/07/05 01:35:06;;;;;;;17.30;13.73;;;;;;;18.42;67.38;99143.34;5053698;28;20053;-89
2021/07/05 01:37:33;;;;;;;14.65;12.60;;;;;;;18.39;67.46;99146.34;5068268;28;20493;-90
2021/07/05 01:40:00;;;;;;;14.93;13.30;;;;;;;18.35;67.55;99138.66;5072629;28;20056;-89
2021/07/05 01:42:27;;;;;;;18.35;14.02;;;;;;;18.33;67.57;99135.31;5072667;28;20397;-90
2021/07/05 01:44:57;;;;;;;23.75;13.95;;;;;;;18.30;67.82;99134.78;5072565;28;20549;-89
2021/07/05 01:47:24;;;;;;;21.25;14.25;;;;;;;18.26;67.75;99136.06;5072311;28;20052;-89
2021/07/05 01:49:51;;;;;;;17.35;14.65;;;;;;;18.22;67.71;99136.41;5073316;28;20056;-89
2021/07/05 01:52:18;;;;;;;19.58;14.93;;;;;;;18.21;67.94;99128.53;5073663;28;20048;-90
2021/07/05 01:54:44;;;;;;;23.90;15.38;;;;;;;18.18;68.27;99139.50;5072060;28;20071;-90
2021/07/05 01:57:26;;;;;;;22.38;17.42;;;;;;;18.14;68.01;99130.13;5072173;28;20060;-90
2021/07/05 01:59:58;;;;;;;22.30;15.20;;;;;;;18.10;68.97;99133.09;5072259;28;20060;-89
2021/07/05 02:02:26;;;;;;;24.35;16.90;;;;;;;18.10;68.06;99134.94;5071847;28;20067;-90
2021/07/05 02:04:53;;;;;;;23.48;16.75;;;;;;;18.07;68.09;99130.72;5073057;28;20452;-90
2021/07/05 02:07:21;;;;;;;20.58;15.68;;;;;;;18.05;68.18;99127.38;5071633;28;20053;-89
2021/07/05 02:09:48;;;;;;;19.42;15.88;;;;;;;18.03;68.23;99118.69;5072011;28;20055;-90
2021/07/05 02:12:16;;;;;;;23.45;17.35;;;;;;;18.03;68.26;99121.38;5072786;28;20492;-90
2021/07/05 02:14:43;;;;;;;23.30;15.65;;;;;;;18.01;68.25;99126.00;5073303;28;20063;-90
2021/07/05 02:17:11;;;;;;;22.95;16.38;;;;;;;17.98;68.10;99129.78;5061145;28;20072;-90
2021/07/05 02:19:39;;;;;;;21.08;15.75;;;;;;;17.95;68.19;99116.78;5051727;28;20064;-89
2021/07/05 02:22:07;;;;;;;22.35;16.50;;;;;;;17.93;68.24;99109.94;5050681;28;20045;-89
2021/07/05 02:24:34;;;;;;;22.05;15.93;;;;;;;17.92;68.32;99113.59;5050869;28;20049;-91
2021/07/05 02:27:04;;;;;;;20.77;15.32;;;;;;;17.88;68.19;99113.06;5052690;28;20049;-89
2021/07/05 02:29:31;;;;;;;24.90;15.85;;;;;;;17.87;68.33;99119.34;5051793;28;20049;-89
2021/07/05 02:31:57;;;;;;;21.85;15.93;;;;;;;17.86;68.08;99122.19;5052678;28;20056;-90
2021/07/05 02:34:24;;;;;;;21.27;15.60;;;;;;;17.82;67.99;99116.31;5052688;28;20082;-89
2021/07/05 02:36:50;;;;;;;20.30;15.98;;;;;;;17.80;68.11;99112.97;5051289;28;20506;-89
2021/07/05 02:39:18;;;;;;;21.17;15.27;;;;;;;17.76;68.13;99108.94;5051454;28;20418;-90
2021/07/05 02:41:45;;;;;;;18.15;15.90;;;;;;;17.73;68.17;99101.25;5052211;28;20099;-89
2021/07/05 02:44:12;;;;;;;17.65;15.73;;;;;;;17.70;68.26;99107.72;5052419;28;20051;-89
2021/07/05 02:46:39;;;;;;;19.27;15.07;;;;;;;17.68;68.24;99104.38;5052527;28;20056;-89
2021/07/05 02:49:06;;;;;;;21.95;15.07;;;;;;;17.66;68.23;99111.66;5052551;28;20452;-89
2021/07/05 02:51:33;;;;;;;17.35;15.18;;;;;;;17.63;68.26;99106.63;5051283;28;20061;-89
2021/07/05 02:54:00;;;;;;;21.20;14.43;;;;;;;17.60;68.27;99096.31;5052047;28;20099;-89
2021/07/05 02:56:26;;;;;;;19.80;15.30;;;;;;;17.56;68.07;99101.91;5050992;28;20045;-90
2021/07/05 02:58:53;;;;;;;23.35;16.15;;;;;;;17.54;68.19;99097.72;5052205;28;20045;-89
2021/07/05 03:01:20;;;;;;;18.30;14.93;;;;;;;17.51;68.32;99090.03;5051095;28;20387;-89
2021/07/05 03:03:46;;;;;;;17.67;13.82;;;;;;;17.47;68.47;99084.19;5052113;28;20132;-89
2021/07/05 03:06:13;;;;;;;19.88;14.07;;;;;;;17.45;68.50;99092.31;5050718;28;20056;-90
2021/07/05 03:08:40;;;;;;;15.93;13.20;;;;;;;17.44;68.60;99092.47;5052159;28;20057;-89
2021/07/05 03:11:10;;;;;;;20.00;14.77;;;;;;;17.44;68.34;99087.13;5056045;28;20056;-90
2021/07/05 03:13:37;;;;;;;20.77;14.65;;;;;;;17.43;68.34;99085.47;5051063;28;20052;-90
2021/07/05 03:16:04;;;;;;;20.52;14.52;;;;;;;17.43;68.41;99086.28;5052081;28;20434;-89
2021/07/05 03:18:30;;;;;;;22.65;13.82;;;;;;;17.43;68.81;99088.13;5052332;28;20048;-89
2021/07/05 03:20:57;;;;;;;19.83;13.82;;;;;;;17.42;68.64;99083.81;5050554;28;20049;-90
2021/07/05 03:23:25;;;;;;;16.55;12.60;;;;;;;17.43;68.67;99082.81;5050791;28;20064;-89
2021/07/05 03:25:53;;;;;;;19.65;14.00;;;;;;;17.44;68.56;99082.66;5050658;28;20056;-89
2021/07/05 03:28:20;;;;;;;17.30;13.40;;;;;;;17.46;68.56;99087.84;5051810;28;20045;-88
2021/07/05 03:30:50;;;;;;;16.80;12.30;;;;;;;17.45;68.55;99083.47;5050733;28;20079;-90
2021/07/05 03:33:17;;;;;;;18.17;13.50;;;;;;;17.47;68.13;99075.34;5050471;28;20060;-88
2021/07/05 03:35:44;;;;;;;20.35;12.65;;;;;;;17.47;68.36;99078.88;5050553;28;20045;-89
2021/07/05 03:38:13;;;;;;;16.58;12.90;;;;;;;17.47;68.29;99080.69;5052194;28;20049;-89
2021/07/05 03:40:40;;;;;;;16.40;13.35;;;;;;;17.47;68.29;99086.00;5052060;28;20057;-89
2021/07/05 03:43:07;;;;;;;17.13;12.20;;;;;;;17.45;68.02;99089.66;5050701;28;20048;-89
2021/07/05 03:45:36;;;;;;;17.92;12.45;;;;;;;17.45;67.89;99094.97;5051820;28;20055;-89
2021/07/05 03:48:05;;;;;;;17.17;12.32;;;;;;;17.44;68.40;99092.47;5050426;28;20063;-89
2021/07/05 03:50:33;;;;;;;13.30;11.77;;;;;;;17.43;68.08;99101.44;5051038;28;20049;-89
2021/07/05 03:53:00;;;;;;;15.13;11.52;;;;;;;17.42;68.24;99094.44;5051802;28;20056;-90
2021/07/05 03:55:31;;;;;;;14.20;11.50;;;;;;;17.43;68.44;99101.44;5051728;28;20049;-90
2021/07/05 03:57:59;;;;;;;13.00;10.38;;;;;;;17.43;68.58;99096.94;5050735;28;20053;-90
2021/07/05 04:00:30;;;;;;;15.30;10.45;;;;;;;17.45;68.35;99092.31;5050590;28;20048;-90
2021/07/05 04:02:57;;;;;;;15.00;10.23;;;;;;;17.47;68.19;99096.63;5055536;28;20079;-90
2021/07/05 04:05:24;;;;;;;12.30;10.38;;;;;;;17.50;68.51;99099.00;5072648;28;20045;-90
2021/07/05 04:07:51;;;;;;;12.85;9.45;;;;;;;17.51;68.21;99101.53;5075203;28;20048;-90
2021/07/05 04:10:18;;;;;;;15.30;9.60;;;;;;;17.52;68.12;99100.53;5075678;28;20060;-90
2021/07/05 04:12:45;;;;;;;15.10;9.52;;;;;;;17.54;68.25;99093.22;5074016;28;20048;-89
2021/07/05 04:15:13;;;;;;;12.07;9.77;;;;;;;17.56;68.55;99090.41;5073868;28;20132;-89
2021/07/05 04:17:40;;;;;;;11.65;9.23;;;;;;;17.59;68.36;99098.13;5075375;28;20052;-89
2021/07/05 04:20:13;;;;;;;9.68;8.25;;;;;;;17.62;68.58;99107.63;5074939;28;20059;-89
2021/07/05 04:22:40;;;;;;;11.27;8.07;;;;;;;17.67;68.13;99108.00;5073803;28;20055;-89
2021/07/05 04:25:10;;;;;;;12.57;8.90;;;;;;;17.69;68.03;99106.88;5074915;28;20048;-90
2021/07/05 04:27:37;;;;;;;8.13;7.28;;;;;;;17.73;68.19;99111.91;5074212;28;20137;-88
2021/07/05 04:30:06;;;;;;;9.60;7.22;;;;;;;17.76;68.20;99108.94;5074095;28;20106;-89
2021/07/05 04:32:32;;;;;;;10.05;7.57;;;;;;;17.81;68.09;99101.34;5073685;28;20502;-89
2021/07/05 04:34:59;;;;;;;12.98;7.47;;;;;;;17.84;68.25;99093.06;5074443;28;20486;-89
2021/07/05 04:37:26;;;;;;;13.20;7.45;;;;;;;17.87;68.22;99092.72;5073763;28;20055;-89
2021/07/05 04:39:52;;;;;;;8.60;6.60;;;;;;;17.91;68.38;99088.78;5074741;28;20146;-89
2021/07/05 04:42:19;;;;;;;10.00;6.30;;;;;;;17.96;68.27;99080.34;5074945;28;20056;-89
2021/07/05 04:44:46;;;;;;;11.00;6.00;;;;;;;18.01;68.14;99085.22;5073431;28;20590;-89
2021/07/05 04:47:13;;;;;;;6.63;5.78;;;;;;;18.06;68.08;99085.59;5074789;28;20060;-90
2021/07/05 04:49:40;;;;;;;9.27;5.70;;;;;;;18.11;68.19;99091.34;5073878;28;20049;-90
2021/07/05 04:52:06;;;;;;;7.07;5.32;;;;;;;18.17;68.09;99084.56;5074461;28;20052;-89
2021/07/05 04:54:33;;;;;;;12.10;5.10;;;;;;;18.21;67.99;99092.06;5073103;28;20575;-89
2021/07/05 04:57:00;;;;;;;6.88;5.13;;;;;;;18.27;67.84;99081.81;5074566;28;20448;-89
2021/07/05 04:59:26;;;;;;;5.53;4.60;;;;;;;18.32;67.87;99090.19;5074727;28;20055;-89
2021/07/05 05:01:53;;;;;;;5.15;4.22;;;;;;;18.36;67.70;99076.38;5054424;28;20469;-89
2021/07/05 05:04:20;;;;;;;9.90;4.60;;;;;;;18.40;67.74;99074.25;5054276;28;20080;-90
2021/07/05 05:06:46;;;;;;;5.15;4.65;;;;;;;18.44;67.53;99078.28;5052865;28;20720;-89
2021/07/05 05:09:13;;;;;;;4.35;3.92;;;;;;;18.48;67.63;99078.81;5054325;28;20060;-90
2021/07/05 05:11:39;;;;;;;5.60;3.83;;;;;;;18.53;67.68;99073.84;5052833;28;20053;-89
2021/07/05 05:14:06;;;;;;;4.60;4.05;;;;;;;18.57;67.82;99071.69;5053251;28;20080;-90
2021/07/05 05:16:33;;;;;;;7.00;3.80;;;;;;;18.63;67.63;99079.06;5052932;28;20428;-90
2021/07/05 05:19:00;;;;;;;5.13;4.07;;;;;;;18.69;67.62;99072.28;5054297;28;20455;-89
2021/07/05 05:21:27;;;;;;;4.95;3.78;;;;;;;18.76;67.72;99073.31;5053178;28;20049;-90
2021/07/05 05:23:54;;;;;;;5.78;3.47;;;;;;;18.82;67.72;99067.34;5052640;28;20465;-89
2021/07/05 05:26:20;;;;;;;5.20;3.35;;;;;;;18.87;67.49;99070.38;5052934;28;20052;-90
2021/07/05 05:28:47;;;;;;;5.13;3.55;;;;;;;18.96;67.53;99057.09;5052764;28;20055;-90
2021/07/05 05:31:15;;;;;;;4.82;3.17;;;;;;;19.02;67.60;99056.44;5067018;28;20114;-89
2021/07/05 05:33:42;;;;;;;4.65;3.53;;;;;;;19.08;67.93;99058.50;5072610;28;20417;-89
2021/07/05 05:36:09;;;;;;;4.60;3.22;;;;;;;19.18;67.66;99053.06;5072719;28;20071;-90
2021/07/05 05:38:36;;;;;;;6.85;3.17;;;;;;;19.26;67.42;99060.25;5072678;28;20052;-89
2021/07/05 05:41:04;;;;;;;4.57;2.90;;;;;;;19.35;67.62;99047.75;5061552;28;20057;-89
2021/07/05 05:43:31;;;;;;;3.28;2.90;;;;;;;19.43;67.43;99050.44;5052670;28;20053;-90
2021/07/05 05:46:01;;;;;;;4.07;2.90;;;;;;;19.51;67.46;99047.81;5053386;28;20056;-90
2021/07/05 05:48:30;;;;;;;3.55;2.65;;;;;;;19.61;67.23;99047.66;5053767;28;20055;-88
2021/07/05 05:50:58;;;;;;;3.38;2.95;;;;;;;19.71;66.96;99052.84;5063260;28;20053;-89
2021/07/05 05:53:25;;;;;;;3.15;2.45;;;;;;;19.79;66.87;99052.88;5072403;28;20052;-89
2021/07/05 05:55:52;;;;;;;4.28;2.80;;;;;;;19.87;66.00;99045.84;5071738;28;20056;-89
2021/07/05 05:58:19;;;;;;;5.68;2.92;;;;;;;19.92;66.17;99056.88;5073559;28;20055;-89
2021/07/05 06:00:46;;;;;;;5.10;3.35;;;;;;;19.95;65.97;99053.06;5062394;28;20041;-89
2021/07/05 06:03:13;;;;;;;3.67;3.17;;;;;;;19.96;65.70;99057.38;5053490;28;20048;-89
2021/07/05 06:05:39;;;;;;;7.68;3.10;;;;;;;19.96;65.36;99060.06;5051618;28;20513;-89
2021/07/05 06:08:06;;;;;;;5.13;3.05;;;;;;;19.93;65.39;99067.38;5052107;28;20053;-90
2021/07/05 06:10:33;;;;;;;4.38;3.53;;;;;;;19.89;65.03;99062.56;5059048;28;20064;-89
2021/07/05 06:13:00;;;;;;;4.28;3.03;;;;;;;19.85;65.06;99069.22;5071588;28;20052;-90
2021/07/05 06:15:27;;;;;;;5.80;3.28;;;;;;;19.78;65.31;99074.38;5072664;28;20055;-89
2021/07/05 06:17:58;;;;;;;8.38;3.35;;;;;;;19.73;65.32;99071.38;5071533;28;20052;-89
2021/07/05 06:20:25;;;;;;;5.97;3.67;;;;;;;19.67;65.59;99067.53;5065749;28;20059;-89
2021/07/05 06:23:18;;;;;;;7.93;3.78;;;;;;;19.62;65.42;99070.69;5052992;28;20131;-89
2021/07/05 06:25:45;;;;;;;3.95;3.38;;;;;;;19.59;65.86;99073.66;5052732;28;20053;-89
2021/07/05 06:28:13;;;;;;;6.38;4.03;;;;;;;19.57;65.82;99082.84;5052372;28;20383;-89
2021/07/05 06:30:39;;;;;;;5.45;4.20;;;;;;;19.55;66.15;99082.19;5060136;28;20059;-89
2021/07/05 06:33:06;;;;;;;4.20;3.33;;;;;;;19.52;66.14;99078.00;5072924;28;20055;-91
2021/07/05 06:35:32;;;;;;;3.80;3.25;;;;;;;19.51;66.17;99084.34;5071622;28;20048;-90
2021/07/05 06:38:00;;;;;;;8.13;3.72;;;;;;;19.50;65.97;99091.50;5071662;28;20070;-88
2021/07/05 06:40:27;;;;;;;4.60;3.65;;;;;;;19.49;65.95;99086.31;5066095;28;20045;-91
2021/07/05 06:42:54;;;;;;;6.05;3.97;;;;;;;19.47;66.11;99083.81;5051106;28;20053;-90
2021/07/05 06:45:20;;;;;;;7.75;3.97;;;;;;;19.46;66.21;99083.97;5052662;28;20045;-91
2021/07/05 06:47:47;;;;;;;6.15;4.50;;;;;;;19.45;66.34;99084.97;5052371;28;20056;-91
2021/07/05 06:50:14;;;;;;;12.63;6.05;;;;;;;19.44;66.06;99092.13;5051734;28;20060;-89
2021/07/05 06:52:42;;;;;;;10.13;5.55;;;;;;;19.41;66.12;99089.81;5052641;28;20056;-89
2021/07/05 06:55:09;;;;;;;9.50;5.35;;;;;;;19.38;66.12;99093.66;5050628;28;20052;-88
2021/07/05 06:57:37;;;;;;;10.98;5.65;;;;;;;19.36;66.36;99100.16;5052165;28;20053;-86
2021/07/05 07:00:15;;;;;;;12.82;6.93;;;;;;;19.31;66.84;99087.28;5052229;28;20055;-84
2021/07/05 07:02:43;;;;;;;8.55;5.90;;;;;;;19.30;66.37;99085.59;5052497;28;20486;-85
2021/07/05 07:05:13;;;;;;;9.40;7.10;;;;;;;19.26;66.54;99097.59;5051098;28;20134;-85
2021/07/05 07:07:45;;;;;;;7.93;6.40;;;;;;;19.21;67.08;99090.06;5052816;28;20045;-84
2021/07/05 07:10:14;;;;;;;10.95;7.38;;;;;;;19.20;66.89;99098.22;5053140;28;20044;-84
2021/07/05 07:12:45;;;;;;;8.02;7.22;;;;;;;19.16;66.91;99099.53;5073214;28;20145;-84
2021/07/05 07:15:13;;;;;;;10.40;6.40;;;;;;;19.12;67.41;99110.53;5072967;28;20062;-84
2021/07/05 07:17:42;;;;;;;8.30;5.72;;;;;;;19.07;67.07;99112.84;5071851;28;20051;-84
2021/07/05 07:20:12;;;;;;;5.65;5.00;;;;;;;19.05;67.14;99119.28;5068928;28;20061;-84
2021/07/05 07:22:39;;;;;;;11.23;6.22;;;;;;;18.98;67.32;99113.75;5053817;28;20048;-83
2021/07/05 07:25:09;;;;;;;10.82;5.63;;;;;;;18.94;67.39;99118.56;5053713;28;20057;-83
2021/07/05 07:27:36;;;;;;;9.95;5.72;;;;;;;18.91;67.60;99110.88;5052209;28;20049;-84
2021/07/05 07:30:08;;;;;;;8.65;4.53;;;;;;;18.86;68.45;99115.84;5051876;28;20098;-86
2021/07/05 07:32:43;;;;;;;6.60;5.10;;;;;;;18.86;67.95;99111.38;5052321;28;20422;-85
2021/07/05 07:35:12;;;;;;;6.18;4.88;;;;;;;18.84;67.96;99107.19;5051825;28;20403;-85
2021/07/05 07:37:40;;;;;;;4.78;4.18;;;;;;;18.83;67.95;99105.50;5050571;28;20044;-85
2021/07/05 07:40:25;;;;;;;7.55;3.85;;;;;;;18.81;68.33;99108.34;5054882;28;20563;-84
2021/07/05 07:42:52;;;;;;;3.50;3.15;;;;;;;18.81;68.41;99097.69;5075915;28;20105;-85
2021/07/05 07:45:20;;;;;;;5.57;2.72;;;;;;;18.81;68.88;99103.00;5075726;28;20547;-84
2021/07/05 07:47:47;;;;;;;5.93;3.35;;;;;;;18.82;68.76;99094.03;5075827;28;20501;-85
2021/07/05 07:50:15;;;;;;;4.57;2.72;;;;;;;18.85;69.05;99088.38;5056534;28;20446;-84
2021/07/05 07:52:42;;;;;;;3.20;2.72;;;;;;;18.88;68.89;99082.72;5054638;28;20053;-84
2021/07/05 07:55:11;;;;;;;4.07;2.97;;;;;;;18.92;69.21;99087.72;5054171;28;20060;-84
2021/07/05 07:57:38;;;;;;;3.85;3.13;;;;;;;18.93;68.96;99102.72;5055521;28;20052;-85
2021/07/05 08:00:11;;;;;;;5.72;2.90;;;;;;;18.95;69.06;99103.44;5071533;28;20076;-84
2021/07/05 08:02:43;;;;;;;3.33;3.03;;;;;;;18.99;68.70;99110.13;5075752;28;20617;-84
2021/07/05 08:05:11;;;;;;;5.40;3.33;;;;;;;19.01;68.90;99108.13;5074103;28;20059;-85
2021/07/05 08:07:41;;;;;;;3.70;2.72;;;;;;;19.04;68.98;99110.47;5074008;28;20041;-85
2021/07/05 08:10:13;;;;;;;2.65;2.40;;;;;;;19.04;68.68;99109.63;5058438;28;20075;-85
2021/07/05 08:12:42;;;;;;;2.58;2.15;;;;;;;19.08;68.61;99109.19;5055325;28;20083;-85
2021/07/05 08:15:11;;;;;;;3.17;2.10;;;;;;;19.10;68.30;99104.53;5054804;28;20061;-86
2021/07/05 08:17:37;;;;;;;2.55;2.15;;;;;;;19.12;68.37;99102.53;5055349;28;20060;-85
2021/07/05 08:20:05;;;;;;;2.55;2.33;;;;;;;19.16;68.36;99110.22;5055631;28;20076;-86
2021/07/05 08:22:33;;;;;;;2.47;2.28;;;;;;;19.17;68.34;99111.91;5055332;28;20049;-85
2021/07/05 08:25:01;;;;;;;4.13;2.40;;;;;;;19.18;68.20;99113.56;5053740;28;20106;-86
2021/07/05 08:27:28;;;;;;;3.83;2.60;;;;;;;19.18;67.96;99117.09;5053966;28;20044;-86
2021/07/05 08:29:56;;;;;;;3.33;2.80;;;;;;;19.18;67.69;99121.56;5057382;28;20059;-86
2021/07/05 08:32:23;;;;;;;6.22;2.78;;;;;;;19.18;67.67;99126.91;5055079;28;20056;-87
2021/07/05 08:34:49;;;;;;;3.67;2.08;;;;;;;19.16;67.51;99123.53;5053424;28;20048;-85
2021/07/05 08:37:16;;;;;;;3.60;2.30;;;;;;;19.14;67.89;99123.72;5054367;28;20059;-85
2021/07/05 08:39:43;;;;;;;3.13;1.50;;;;;;;19.13;67.75;99119.38;5054782;28;20053;-85
2021/07/05 08:42:10;;;;;;;3.17;1.52;;;;;;;19.13;67.60;99114.88;5054599;28;20048;-86
2021/07/05 08:44:40;;;;;;;2.75;1.73;;;;;;;19.13;67.98;99114.88;5055089;28;20072;-86
2021/07/05 08:47:09;;;;;;;2.05;1.45;;;;;;;19.19;67.65;99124.09;5053615;28;20048;-85
2021/07/05 08:49:36;;;;;;;5.00;2.22;;;;;;;19.23;68.16;99122.78;5054606;28;20053;-86
2021/07/05 08:52:03;;;;;;;11.30;2.13;;;;;;;19.28;68.24;99130.28;5054179;28;20076;-86
2021/07/05 08:54:29;;;;;;;4.38;2.35;;;;;;;19.34;67.96;99123.47;5054471;28;20106;-87
2021/07/05 08:56:56;;;;;;;6.63;1.90;;;;;;;19.40;68.53;99129.00;5052976;28;20106;-86
2021/07/05 08:59:23;;;;;;;4.95;2.63;;;;;;;19.50;68.51;99139.56;5053104;28;20057;-87
2021/07/05 09:01:49;;;;;;;2.40;1.80;;;;;;;19.59;68.15;99135.06;5054487;28;20064;-87
2021/07/05 09:04:17;;;;;;;2.85;1.80;;;;;;;19.67;67.63;99127.09;5053467;28;20111;-87
2021/07/05 09:07:05;;;;;;;2.25;1.52;;;;;;;19.73;66.86;99140.81;5054125;28;20120;-87
2021/07/05 09:09:35;;;;;;;1.45;1.30;;;;;;;19.84;66.69;99143.16;5052998;28;20068;-88
2021/07/05 09:12:06;;;;;;;1.33;1.23;;;;;;;19.89;66.02;99140.00;5053577;28;20103;-88
2021/07/05 09:14:35;;;;;;;1.75;1.00;;;;;;;19.95;66.05;99147.34;5053080;28;20405;-87
2021/07/05 09:17:09;;;;;;;1.50;1.38;;;;;;;19.96;65.53;99153.53;5052734;28;20048;-88
2021/07/05 09:19:38;;;;;;;1.55;1.45;;;;;;;20.00;65.50;99152.25;5053042;28;20062;-88
2021/07/05 09:22:08;;;;;;;2.33;1.40;;;;;;;20.00;64.87;99160.25;5054408;28;20057;-88
2021/07/05 09:24:44;;;;;;;2.22;1.30;;;;;;;19.97;64.16;99152.53;5054024;28;20061;-88
2021/07/05 09:27:23;;;;;;;1.63;1.30;;;;;;;19.94;64.45;99161.72;5054339;28;20049;-89
2021/07/05 09:29:50;;;;;;;2.17;1.40;;;;;;;19.98;64.29;99159.53;5064542;28;20059;-87
2021/07/05 09:32:26;;;;;;;1.20;1.10;;;;;;;19.93;63.97;99155.53;5072561;28;20501;-88
2021/07/05 09:34:54;;;;;;;3.40;1.55;;;;;;;19.98;64.44;99164.88;5072200;28;20052;-87
2021/07/05 09:37:32;;;;;;;5.40;1.63;;;;;;;19.99;65.16;99170.09;5072274;28;20048;-89
2021/07/05 09:40:11;;;;;;;1.52;1.42;;;;;;;20.07;65.39;99173.81;5072588;28;20056;-88
2021/07/05 09:42:42;;;;;;;5.28;1.95;;;;;;;20.17;65.54;99179.81;5072109;28;20535;-89
2021/07/05 09:45:29;;;;;;;2.20;2.00;;;;;;;20.30;65.64;99174.00;5072258;28;20051;-88
2021/07/05 09:48:18;;;;;;;4.80;2.22;;;;;;;20.49;64.32;99177.34;5072315;28;20048;-90
2021/07/05 09:51:00;;;;;;;4.47;2.65;;;;;;;20.68;65.11;99181.53;5072460;28;20068;-89
2021/07/05 09:53:44;;;;;;;7.63;2.85;;;;;;;20.81;64.61;99184.53;5073926;28;20455;-90
2021/07/05 09:56:26;;;;;;;6.20;2.70;;;;;;;20.96;64.52;99190.06;5073403;28;20063;-90
2021/07/05 09:59:14;;;;;;;6.35;2.92;;;;;;;21.09;64.35;99189.53;5073238;28;20506;-89
2021/07/05 10:01:42;;;;;;;3.10;2.40;;;;;;;21.23;63.66;99192.50;5073542;28;20052;-89
2021/07/05 10:04:25;;;;;;;8.63;2.92;;;;;;;21.29;63.61;99191.84;5072015;28;20095;-89
2021/07/05 10:06:55;;;;;;;4.30;2.33;;;;;;;21.35;63.56;99183.09;5073188;28;20082;-89
2021/07/05 10:09:35;;;;;;;5.13;2.63;;;;;;;21.40;63.20;99179.06;5072020;28;20058;-90
2021/07/05 10:12:26;;;;;;;17.77;3.00;;;;;;;21.48;62.36;99176.38;5073358;28;20102;-89
2021/07/05 10:15:03;;;;;;;4.68;2.53;;;;;;;21.60;63.48;99183.03;5071607;28;20513;-89
2021/07/05 10:17:33;;;;;;;5.75;2.60;;;;;;;21.76;63.96;99183.16;5072769;28;20056;-89
2021/07/05 10:20:01;;;;;;;3.45;2.20;;;;;;;21.89;64.17;99186.09;5072983;28;20087;-89
2021/07/05 10:22:28;;;;;;;5.07;2.88;;;;;;;22.04;63.58;99194.22;5071607;28;20044;-89
2021/07/05 10:24:55;;;;;;;4.38;2.47;;;;;;;22.20;63.82;99181.75;5072096;28;20052;-89
2021/07/05 10:27:23;;;;;;;3.33;2.47;;;;;;;22.34;62.77;99190.84;5073126;28;20045;-90
2021/07/05 10:29:51;;;;;;;10.15;3.00;;;;;;;22.44;62.05;99190.63;5073057;28;20478;-89
2021/07/05 10:32:19;;;;;;;4.78;2.83;;;;;;;22.51;61.51;99195.06;5072612;28;20577;-88
2021/07/05 10:34:51;;;;;;;3.85;2.42;;;;;;;22.55;60.36;99198.28;5073122;28;20091;-89
2021/07/05 10:37:34;;;;;;;;;;;;;;;22.61;61.93;99191.38;5073129;28;20051;-89
2021/07/05 10:40:02;;;;;;;5.15;2.30;;;;;;;22.70;60.80;99184.06;5059219;28;20283;-88
2021/07/05 10:42:32;;;;;;;5.82;2.88;;;;;;;22.72;61.11;99176.69;5051454;28;20422;-88
2021/07/05 10:44:59;;;;;;;6.65;2.63;;;;;;;22.83;61.55;99180.78;5050882;28;20063;-88
2021/07/05 10:47:44;;;;;;;4.63;2.40;;;;;;;22.95;61.60;99181.97;5052243;28;20053;-89
2021/07/05 10:50:33;;;;;;;8.88;2.70;;;;;;;23.21;60.41;99186.06;5061987;28;20118;-89
2021/07/05 10:53:00;;;;;;;6.22;2.40;;;;;;;23.49;60.15;99182.78;5070974;28;20132;-89
2021/07/05 10:55:42;;;;;;;4.32;2.25;;;;;;;23.73;57.74;99178.13;5070420;28;20059;-88
2021/07/05 10:58:28;;;;;;;9.07;3.20;;;;;;;24.14;57.06;99178.63;5071366;28;20052;-88
2021/07/05 11:01:00;;;;;;;4.82;2.30;;;;;;;24.56;57.06;99176.91;5056774;28;20406;-88
2021/07/05 11:03:36;;;;;;;7.35;2.03;;;;;;;25.02;56.81;99176.69;5051702;28;20053;-88
2021/07/05 11:06:11;;;;;;;5.40;2.53;;;;;;;25.48;57.11;99177.97;5051051;28;20453;-88
2021/07/05 11:08:44;;;;;;;5.72;2.55;;;;;;;25.88;52.75;99172.78;5050901;28;20655;-88
2021/07/05 11:11:10;;;;;;;5.20;2.20;;;;;;;26.21;54.32;99156.88;5053145;28;20053;-91
2021/07/05 11:13:38;;;;;;;5.85;2.10;;;;;;;26.47;53.62;99160.69;5050665;28;20056;-86
2021/07/05 11:16:05;;;;;;;5.30;2.13;;;;;;;26.69;52.97;99166.72;5052065;28;20065;-89
2021/07/05 11:18:45;;;;;;;3.97;2.00;;;;;;;26.90;52.27;99167.50;5050536;28;20045;-89
2021/07/05 11:21:24;;;;;;;6.97;2.00;;;;;;;27.15;51.42;99164.19;5068325;28;20418;-89
2021/07/05 11:24:02;;;;;;;6.32;2.75;;;;;;;27.40;49.72;99158.91;5061142;28;20068;-88
2021/07/05 11:26:35;;;;;;;3.97;2.15;;;;;;;27.69;48.86;99164.84;5052584;28;20049;-90
2021/07/05 11:29:14;;;;;;;2.42;1.50;;;;;;;27.97;48.68;99169.06;5051913;28;20045;-88
2021/07/05 11:31:56;;;;;;;3.15;1.45;;;;;;;28.23;49.05;99167.25;5050792;28;20064;-89
2021/07/05 11:34:32;;;;;;;6.00;2.28;;;;;;;28.39;46.54;99170.50;5052050;28;20085;-89
2021/07/05 11:37:11;;;;;;;4.00;1.58;;;;;;;28.36;46.49;99176.34;5050563;28;20056;-90